createdAt,value
2023-03-03T00:02:04.859Z,18.28
2023-03-03T00:04:33.186Z,18.39
2023-03-03T00:07:01.569Z,17.91
2023-03-03T00:09:29.758Z,18.04
2023-03-03T00:11:59.498Z,18.09
2023-03-03T00:14:32.352Z,18.35
2023-03-03T00:17:01.304Z,18.47
2023-03-03T00:19:30.061Z,18.49
2023-03-03T00:21:58.309Z,18.54
2023-03-03T00:24:36.933Z,18.67
2023-03-03T00:27:17.491Z,18.90
2023-03-03T00:29:52.431Z,18.55
2023-03-03T00:32:30.329Z,18.79
2023-03-03T00:35:03.020Z,19.12
2023-03-03T00:37:34.157Z,19.39
2023-03-03T00:40:22.709Z,19.06
2023-03-03T00:42:55.761Z,18.92
2023-03-03T00:45:36.380Z,19.08
2023-03-03T00:48:21.876Z,19.25
2023-03-03T00:50:50.793Z,19.38
2023-03-03T00:53:19.807Z,19.50
2023-03-03T00:55:49.407Z,19.34
2023-03-03T00:58:21.881Z,19.38
2023-03-03T01:00:52.770Z,19.44
2023-03-03T01:03:24.783Z,19.19
2023-03-03T01:05:53.813Z,18.98
2023-03-03T01:08:22.391Z,19.10
2023-03-03T01:10:57.001Z,19.24
2023-03-03T01:13:28.394Z,19.27
2023-03-03T01:15:56.531Z,19.19
2023-03-03T01:18:25.214Z,18.99
2023-03-03T01:20:53.317Z,19.07
2023-03-03T01:23:28.787Z,19.05
2023-03-03T01:25:58.135Z,18.81
2023-03-03T01:28:26.124Z,18.92
2023-03-03T01:30:54.214Z,18.92
2023-03-03T01:33:22.393Z,18.79
2023-03-03T01:35:50.671Z,18.82
2023-03-03T01:38:20.232Z,18.88
2023-03-03T01:40:55.777Z,18.74
2023-03-03T01:43:27.493Z,18.68
2023-03-03T01:45:58.479Z,18.89
2023-03-03T01:48:28.971Z,18.43
2023-03-03T01:51:10.183Z,17.84
2023-03-03T01:53:46.522Z,17.74
2023-03-03T01:56:16.152Z,17.63
2023-03-03T01:58:47.457Z,17.79
2023-03-03T02:01:17.758Z,17.95
2023-03-03T02:03:46.015Z,18.35
2023-03-03T02:06:16.013Z,18.14
2023-03-03T02:09:13.578Z,18.18
2023-03-03T02:11:43.108Z,18.12
2023-03-03T02:14:11.836Z,18.03
2023-03-03T02:16:41.973Z,17.94
2023-03-03T02:19:17.234Z,18.29
2023-03-03T02:21:45.358Z,18.90
2023-03-03T02:24:27.656Z,18.66
2023-03-03T02:26:56.405Z,18.57
2023-03-03T02:29:24.785Z,18.35
2023-03-03T02:31:54.000Z,18.27
2023-03-03T02:34:22.995Z,18.00
2023-03-03T02:36:54.738Z,18.21
2023-03-03T02:39:27.343Z,18.32
2023-03-03T02:42:18.654Z,18.51
2023-03-03T02:44:55.100Z,18.78
2023-03-03T02:47:25.111Z,18.54
2023-03-03T02:50:00.864Z,18.38
2023-03-03T02:52:29.026Z,18.24
2023-03-03T02:54:57.213Z,18.20
2023-03-03T02:57:25.686Z,18.18
2023-03-03T02:59:55.599Z,17.96
2023-03-03T03:02:23.792Z,18.14
2023-03-03T03:04:51.911Z,17.74
2023-03-03T03:07:22.579Z,17.72
2023-03-03T03:09:50.763Z,17.87
2023-03-03T03:12:19.410Z,17.95
2023-03-03T03:14:49.288Z,18.06
2023-03-03T03:17:18.215Z,17.85
2023-03-03T03:19:47.558Z,18.11
2023-03-03T03:22:16.449Z,17.96
2023-03-03T03:24:44.803Z,18.15
2023-03-03T03:27:13.774Z,18.46
2023-03-03T03:29:43.758Z,18.20
2023-03-03T03:32:13.174Z,17.92
2023-03-03T03:34:41.402Z,17.95
2023-03-03T03:37:10.013Z,18.04
2023-03-03T03:39:58.840Z,18.01
2023-03-03T03:42:27.838Z,18.37
2023-03-03T03:44:56.153Z,18.16
2023-03-03T03:47:24.697Z,18.23
2023-03-03T03:49:53.048Z,18.02
2023-03-03T03:52:21.656Z,18.08
2023-03-03T03:54:50.149Z,18.03
2023-03-03T03:57:18.529Z,18.21
2023-03-03T04:00:11.051Z,18.27
2023-03-03T04:02:51.471Z,18.14
2023-03-03T04:05:20.858Z,18.12
2023-03-03T04:09:34.964Z,13.27
2023-03-03T04:12:04.008Z,15.96
2023-03-03T04:14:34.406Z,16.58
2023-03-03T04:17:03.630Z,16.91
2023-03-03T04:19:32.007Z,16.79
2023-03-03T04:22:00.060Z,16.86
2023-03-03T04:24:28.289Z,16.76
2023-03-03T04:26:57.026Z,16.92
2023-03-03T04:29:25.303Z,17.05
2023-03-03T04:31:53.408Z,16.94
2023-03-03T04:34:21.893Z,17.07
2023-03-03T04:36:50.134Z,17.22
2023-03-03T04:39:23.627Z,17.15
2023-03-03T04:41:52.318Z,17.40
2023-03-03T04:44:21.550Z,17.54
2023-03-03T04:46:50.473Z,17.74
2023-03-03T04:49:19.333Z,17.77
2023-03-03T04:51:49.269Z,17.75
2023-03-03T04:54:17.989Z,17.61
2023-03-03T04:56:46.596Z,17.53
2023-03-03T04:59:15.476Z,17.56
2023-03-03T05:01:46.801Z,17.70
2023-03-03T05:04:16.653Z,18.07
2023-03-03T05:06:46.785Z,17.98
2023-03-03T05:09:15.154Z,17.44
2023-03-03T05:11:43.453Z,17.22
2023-03-03T05:14:12.549Z,17.08
2023-03-03T05:16:41.176Z,16.98
2023-03-03T05:19:09.258Z,17.11
2023-03-03T05:21:41.935Z,17.13
2023-03-03T05:24:10.838Z,17.41
2023-03-03T05:26:42.092Z,17.76
2023-03-03T05:29:10.515Z,17.38
2023-03-03T05:31:38.621Z,17.58
2023-03-03T05:34:07.402Z,17.56
2023-03-03T05:36:35.402Z,17.33
2023-03-03T05:39:03.540Z,17.44
2023-03-03T05:41:31.768Z,17.90
2023-03-03T05:44:05.810Z,17.74
2023-03-03T05:46:34.144Z,17.74
2023-03-03T05:49:02.368Z,17.93
2023-03-03T05:51:30.968Z,18.04
2023-03-03T05:53:59.252Z,17.99
2023-03-03T05:56:27.337Z,18.24
2023-03-03T05:58:56.157Z,18.49
2023-03-03T06:01:24.564Z,18.67
2023-03-03T06:03:52.513Z,18.50
2023-03-03T06:06:20.491Z,18.16
2023-03-03T06:08:49.210Z,18.23
2023-03-03T06:11:19.544Z,17.91
2023-03-03T06:14:06.031Z,17.97
2023-03-03T06:16:35.371Z,18.08
2023-03-03T06:19:03.716Z,18.54
2023-03-03T06:21:32.247Z,18.63
2023-03-03T06:24:00.452Z,18.34
2023-03-03T06:26:28.752Z,18.38
2023-03-03T06:28:56.920Z,18.49
2023-03-03T06:31:25.840Z,18.53
2023-03-03T06:33:54.960Z,18.54
2023-03-03T06:36:28.851Z,18.60
2023-03-03T06:38:57.000Z,18.83
2023-03-03T06:41:25.315Z,18.80
2023-03-03T06:43:54.590Z,18.99
2023-03-03T06:46:22.964Z,19.09
2023-03-03T06:48:52.856Z,19.14
2023-03-03T06:51:31.689Z,19.35
2023-03-03T06:54:01.504Z,19.63
2023-03-03T06:56:29.725Z,19.77
2023-03-03T06:58:58.818Z,19.92
2023-03-03T07:01:27.026Z,20.00
2023-03-03T07:03:55.337Z,19.75
2023-03-03T07:06:25.408Z,19.65
2023-03-03T07:08:53.816Z,19.85
2023-03-03T07:11:22.778Z,19.94
2023-03-03T07:13:52.436Z,20.11
2023-03-03T07:16:25.177Z,20.33
2023-03-03T07:18:55.236Z,20.72
2023-03-03T07:21:33.698Z,20.72
2023-03-03T07:24:10.412Z,20.45
2023-03-03T07:26:40.633Z,20.15
2023-03-03T07:29:27.782Z,20.52
2023-03-03T07:31:58.981Z,20.65
2023-03-03T07:34:35.960Z,20.69
2023-03-03T07:37:29.661Z,20.82
2023-03-03T07:39:57.829Z,20.84
2023-03-03T07:42:40.763Z,21.04
2023-03-03T07:45:32.584Z,21.00
2023-03-03T07:48:40.221Z,21.07
2023-03-03T07:51:36.994Z,21.00
2023-03-03T07:54:28.721Z,20.88
2023-03-03T07:57:23.705Z,21.16
2023-03-03T07:59:56.152Z,21.83
2023-03-03T08:02:33.546Z,21.83
2023-03-03T08:05:04.674Z,22.06
2023-03-03T08:07:33.606Z,21.76
2023-03-03T08:10:02.390Z,22.01
2023-03-03T08:12:42.137Z,21.59
2023-03-03T08:15:27.874Z,21.41
2023-03-03T08:18:02.273Z,21.69
2023-03-03T08:20:44.655Z,21.95
2023-03-03T08:23:13.130Z,21.90
2023-03-03T08:25:42.524Z,21.65
2023-03-03T08:28:11.367Z,22.31
2023-03-03T08:30:40.828Z,22.47
2023-03-03T08:33:09.940Z,21.73
2023-03-03T08:35:38.102Z,21.26
2023-03-03T08:38:06.394Z,21.38
2023-03-03T08:40:35.167Z,21.41
2023-03-03T08:43:06.372Z,21.58
2023-03-03T08:45:34.815Z,22.10
2023-03-03T08:48:05.637Z,22.46
2023-03-03T08:50:34.856Z,22.78
2023-03-03T08:53:03.437Z,22.49
2023-03-03T08:55:38.516Z,22.12
2023-03-03T09:00:54.560Z,21.64
2023-03-03T09:03:50.925Z,21.15
2023-03-03T09:06:18.985Z,21.92
2023-03-03T09:08:48.485Z,22.22
2023-03-03T09:11:22.274Z,22.38
2023-03-03T09:13:54.169Z,22.58
2023-03-03T09:16:22.476Z,22.36
2023-03-03T09:18:54.424Z,22.25
2023-03-03T09:21:27.064Z,22.58
2023-03-03T09:23:57.300Z,22.36
2023-03-03T09:26:31.686Z,22.26
2023-03-03T09:29:15.298Z,22.28
2023-03-03T09:31:43.771Z,22.67
2023-03-03T09:34:25.653Z,22.88
2023-03-03T09:36:54.644Z,23.02
2023-03-03T09:39:23.503Z,23.16
2023-03-03T09:42:16.348Z,23.10
2023-03-03T09:45:11.691Z,22.74
2023-03-03T09:47:42.528Z,22.97
2023-03-03T09:50:31.880Z,22.98
2023-03-03T09:53:27.692Z,22.71
2023-03-03T09:56:01.451Z,23.16
2023-03-03T09:58:49.244Z,23.51
2023-03-03T10:01:20.074Z,23.65
2023-03-03T10:03:55.134Z,23.74
2023-03-03T10:06:29.499Z,24.92
2023-03-03T10:08:57.556Z,25.45
2023-03-03T10:12:02.472Z,26.03
2023-03-03T10:14:44.049Z,26.40
2023-03-03T10:17:12.355Z,26.95
2023-03-03T10:19:51.359Z,26.58
2023-03-03T10:22:52.915Z,26.48
2023-03-03T10:25:25.641Z,25.84
2023-03-03T10:28:11.906Z,25.79
2023-03-03T10:30:48.551Z,25.31
2023-03-03T10:33:29.199Z,24.64
2023-03-03T10:36:21.291Z,24.76
2023-03-03T10:39:04.150Z,24.22
2023-03-03T10:41:39.164Z,23.98
2023-03-03T10:44:28.861Z,23.55
2023-03-03T10:47:32.215Z,23.59
2023-03-03T10:50:21.742Z,23.50
2023-03-03T10:53:11.542Z,23.15
2023-03-03T10:55:50.272Z,22.86
2023-03-03T10:58:30.631Z,22.81
2023-03-03T11:01:24.510Z,22.16
2023-03-03T11:04:02.579Z,22.23
2023-03-03T11:06:42.891Z,21.77
2023-03-03T11:09:31.601Z,21.70
2023-03-03T11:12:04.372Z,20.74
2023-03-03T11:14:48.535Z,21.13
2023-03-03T11:17:52.646Z,21.26
2023-03-03T11:20:32.617Z,21.51
2023-03-03T11:23:13.151Z,21.36
2023-03-03T11:25:44.560Z,21.69
2023-03-03T11:28:47.513Z,21.85
2023-03-03T11:31:41.770Z,22.49
2023-03-03T11:34:23.464Z,22.80
2023-03-03T11:37:01.947Z,23.40
2023-03-03T11:39:31.807Z,23.37
2023-03-03T11:42:38.747Z,22.38
2023-03-03T11:45:15.279Z,22.45
2023-03-03T11:48:13.062Z,22.49
2023-03-03T11:51:02.991Z,22.61
2023-03-03T11:53:32.220Z,23.40
2023-03-03T11:56:06.110Z,23.48
2023-03-03T11:59:00.297Z,23.62
2023-03-03T12:02:24.453Z,23.71
2023-03-03T12:04:55.369Z,23.13
2023-03-03T12:07:49.939Z,23.29
2023-03-03T12:10:23.018Z,23.54
2023-03-03T12:13:17.423Z,23.34
2023-03-03T12:15:55.661Z,22.58
2023-03-03T12:18:36.098Z,22.25
2023-03-03T12:21:08.568Z,22.72
2023-03-03T12:24:14.391Z,23.02
2023-03-03T12:26:49.190Z,22.79
2023-03-03T12:29:49.625Z,22.91
2023-03-03T12:32:46.166Z,23.03
2023-03-03T12:35:24.742Z,23.51
2023-03-03T12:38:13.396Z,23.88
2023-03-03T12:40:46.646Z,24.07
2023-03-03T12:44:08.825Z,24.06
2023-03-03T12:47:20.198Z,23.79
2023-03-03T12:50:12.530Z,23.61
2023-03-03T12:53:03.623Z,23.17
2023-03-03T12:56:09.385Z,23.13
2023-03-03T12:58:45.201Z,23.25
2023-03-03T13:01:30.444Z,23.49
2023-03-03T13:04:08.862Z,23.17
2023-03-03T13:06:57.234Z,23.05
2023-03-03T13:09:38.147Z,22.83
2023-03-03T13:12:16.573Z,23.30
2023-03-03T13:14:57.108Z,23.32
2023-03-03T13:17:36.691Z,23.74
2023-03-03T13:20:19.699Z,23.17
2023-03-03T13:22:52.330Z,22.67
2023-03-03T13:25:32.642Z,22.88
2023-03-03T13:28:38.893Z,22.94
2023-03-03T13:31:20.974Z,22.78
2023-03-03T13:33:56.614Z,22.51
2023-03-03T13:36:51.038Z,22.41
2023-03-03T13:39:28.671Z,22.16
2023-03-03T13:42:01.810Z,21.66
2023-03-03T13:44:41.360Z,21.72
2023-03-03T13:47:39.832Z,21.62
2023-03-03T13:50:14.089Z,22.09
2023-03-03T13:53:24.617Z,22.25
2023-03-03T13:56:23.723Z,22.18
2023-03-03T13:59:17.290Z,22.52
2023-03-03T14:02:06.578Z,22.40
2023-03-03T14:04:53.084Z,22.12
2023-03-03T14:07:27.395Z,21.89
2023-03-03T14:10:32.845Z,21.85
2023-03-03T14:13:06.750Z,21.86
2023-03-03T14:15:55.955Z,21.90
2023-03-03T14:18:39.182Z,22.00
2023-03-03T14:21:14.939Z,21.97
2023-03-03T14:23:50.650Z,21.54
2023-03-03T14:26:18.555Z,21.78
2023-03-03T14:28:51.120Z,21.81
2023-03-03T14:31:39.589Z,21.95
2023-03-03T14:34:29.051Z,22.28
2023-03-03T14:37:42.751Z,21.94
2023-03-03T14:40:16.970Z,21.63
2023-03-03T14:42:54.046Z,21.64
2023-03-03T14:45:32.291Z,21.83
2023-03-03T14:48:00.657Z,21.64
2023-03-03T14:50:37.814Z,21.40
2023-03-03T14:53:29.282Z,21.37
2023-03-03T14:55:57.720Z,21.20
2023-03-03T14:58:40.810Z,21.52
2023-03-03T15:01:28.802Z,21.81
2023-03-03T15:03:57.057Z,21.77
2023-03-03T15:06:36.219Z,21.74
2023-03-03T15:09:43.176Z,21.90
2023-03-03T15:12:24.972Z,21.96
2023-03-03T15:15:02.728Z,21.92
2023-03-03T15:17:37.059Z,21.97
2023-03-03T15:20:43.029Z,21.81
2023-03-03T15:23:36.349Z,21.95
2023-03-03T15:26:32.825Z,22.33
2023-03-03T15:29:17.784Z,22.56
2023-03-03T15:32:04.156Z,22.17
2023-03-03T15:34:47.459Z,22.24
2023-03-03T15:37:28.598Z,22.08
2023-03-03T15:40:06.622Z,22.03
2023-03-03T15:42:48.311Z,21.59
2023-03-03T15:45:22.813Z,21.65
2023-03-03T15:47:57.411Z,22.03
2023-03-03T15:50:31.830Z,22.19
2023-03-03T15:53:35.628Z,21.95
2023-03-03T15:56:21.994Z,22.16
2023-03-03T15:59:09.084Z,21.53
2023-03-03T16:01:45.212Z,21.43
2023-03-03T16:04:15.842Z,21.55
2023-03-03T16:07:04.022Z,20.99
2023-03-03T16:09:47.766Z,21.41
2023-03-03T16:12:55.582Z,21.80
2023-03-03T16:15:35.825Z,21.14
2023-03-03T16:18:20.496Z,20.71
2023-03-03T16:20:57.462Z,20.32
2023-03-03T16:27:18.650Z,17.11
2023-03-03T16:30:25.160Z,19.89
2023-03-03T16:33:10.534Z,20.22
2023-03-03T16:35:41.700Z,20.09
2023-03-03T16:38:15.382Z,20.19
2023-03-03T16:40:47.363Z,20.01
2023-03-03T16:44:19.628Z,19.44
2023-03-03T16:46:49.293Z,19.72
2023-03-03T16:49:25.644Z,19.99
2023-03-03T16:52:02.610Z,20.29
2023-03-03T16:54:39.608Z,20.51
2023-03-03T16:57:21.875Z,20.35
2023-03-03T16:59:57.610Z,20.33
2023-03-03T17:03:16.293Z,20.32
2023-03-03T17:06:12.082Z,20.20
2023-03-03T17:08:39.075Z,20.03
2023-03-03T17:11:36.823Z,19.99
2023-03-03T17:14:30.794Z,20.36
2023-03-03T17:17:03.147Z,20.21
2023-03-03T17:19:41.012Z,19.85
2023-03-03T17:22:27.393Z,20.02
2023-03-03T17:25:00.282Z,20.10
2023-03-03T17:27:35.894Z,20.11
2023-03-03T17:30:10.159Z,20.18
2023-03-03T17:33:04.851Z,20.25
2023-03-03T17:35:58.157Z,19.57
2023-03-03T17:38:29.558Z,19.87
2023-03-03T17:41:22.484Z,20.11
2023-03-03T17:44:10.833Z,20.01
2023-03-03T17:46:54.369Z,20.16
2023-03-03T17:49:21.660Z,20.11
2023-03-03T17:52:16.516Z,20.02
2023-03-03T17:55:16.129Z,20.23
2023-03-03T17:57:57.816Z,20.06
2023-03-03T18:01:06.648Z,20.15
2023-03-03T18:03:56.579Z,19.73
2023-03-03T18:06:41.919Z,19.77
2023-03-03T18:09:35.931Z,20.23
2023-03-03T18:12:17.289Z,20.34
2023-03-03T18:15:07.092Z,20.42
2023-03-03T18:17:37.652Z,20.44
2023-03-03T18:20:41.431Z,20.54
2023-03-03T18:23:29.860Z,20.48
2023-03-03T18:25:59.281Z,20.41
2023-03-03T18:28:46.122Z,20.51
2023-03-03T18:31:25.720Z,20.37
2023-03-03T18:34:08.662Z,20.45
2023-03-03T18:36:57.920Z,20.54
2023-03-03T18:39:38.363Z,20.02
2023-03-03T18:42:25.480Z,19.75
2023-03-03T18:44:52.059Z,19.93
2023-03-03T18:47:21.731Z,19.48
2023-03-03T18:49:54.987Z,19.39
2023-03-03T18:52:24.382Z,19.32
2023-03-03T18:55:09.964Z,19.51
2023-03-03T18:57:37.063Z,19.76
2023-03-03T19:00:36.137Z,19.56
2023-03-03T19:03:03.279Z,19.21
2023-03-03T19:05:45.912Z,19.18
2023-03-03T19:08:25.221Z,19.11
2023-03-03T19:10:57.182Z,19.46
2023-03-03T19:13:32.722Z,19.44
2023-03-03T19:16:02.763Z,19.34
2023-03-03T19:18:55.752Z,19.36
2023-03-03T19:21:32.896Z,19.57
2023-03-03T19:24:27.782Z,19.47
2023-03-03T19:27:15.545Z,19.45
2023-03-03T19:29:45.639Z,19.52
2023-03-03T19:32:36.858Z,19.27
2023-03-03T19:35:41.435Z,19.33
2023-03-03T19:38:14.683Z,19.25
2023-03-03T19:41:13.180Z,19.17
2023-03-03T19:44:05.617Z,19.03
2023-03-03T19:46:58.680Z,18.69
2023-03-03T19:49:49.231Z,18.89
2023-03-03T19:52:25.422Z,19.08
2023-03-03T19:54:57.669Z,19.31
2023-03-03T19:57:53.580Z,19.28
2023-03-03T20:00:29.105Z,19.23
2023-03-03T20:03:00.326Z,19.20
2023-03-03T20:06:02.182Z,19.12
2023-03-03T20:09:04.696Z,18.65
2023-03-03T20:11:49.999Z,18.76
2023-03-03T20:14:36.346Z,18.83
2023-03-03T20:17:23.569Z,19.02
2023-03-03T20:20:18.042Z,18.99
2023-03-03T20:23:08.132Z,18.86
2023-03-03T20:26:01.839Z,18.32
2023-03-03T20:28:43.525Z,18.57
2023-03-03T20:31:25.132Z,18.34
2023-03-03T20:34:00.857Z,18.49
2023-03-03T20:36:47.680Z,18.80
2023-03-03T20:39:41.062Z,18.64
2023-03-03T20:42:26.296Z,18.71
2023-03-03T20:44:54.202Z,18.70
2023-03-03T20:47:23.289Z,18.67
2023-03-03T20:50:01.980Z,18.73
2023-03-03T20:52:47.475Z,18.69
2023-03-03T20:55:29.579Z,18.83
2023-03-03T20:58:00.409Z,18.51
2023-03-03T21:00:48.952Z,18.40
2023-03-03T21:03:33.636Z,18.42
2023-03-03T21:06:06.925Z,18.57
2023-03-03T21:08:54.132Z,18.13
2023-03-03T21:11:21.969Z,17.58
2023-03-03T21:13:53.558Z,18.03
2023-03-03T21:16:21.295Z,18.14
2023-03-03T21:19:10.626Z,18.29
2023-03-03T21:21:41.948Z,18.34
2023-03-03T21:24:14.789Z,17.82
2023-03-03T21:27:01.252Z,18.01
2023-03-03T21:29:33.646Z,18.15
2023-03-03T21:32:04.381Z,18.15
2023-03-03T21:34:33.386Z,18.15
2023-03-03T21:37:09.185Z,18.27
2023-03-03T21:39:39.083Z,18.16
2023-03-03T21:42:19.824Z,18.28
2023-03-03T21:44:49.018Z,18.21
2023-03-03T21:47:21.507Z,17.94
2023-03-03T21:49:59.743Z,17.68
2023-03-03T21:52:26.539Z,17.93
2023-03-03T21:54:53.694Z,17.73
2023-03-03T21:57:26.180Z,17.57
2023-03-03T21:59:52.917Z,17.62
2023-03-03T22:02:19.615Z,18.04
2023-03-03T22:04:46.197Z,17.62
2023-03-03T22:07:13.133Z,17.81
2023-03-03T22:09:41.610Z,17.66
2023-03-03T22:12:08.719Z,17.59
2023-03-03T22:14:37.858Z,17.75
2023-03-03T22:17:06.034Z,17.61
2023-03-03T22:19:33.586Z,17.74
2023-03-03T22:22:00.211Z,18.03
2023-03-03T22:24:27.006Z,18.19
2023-03-03T22:26:53.625Z,18.18
2023-03-03T22:29:22.199Z,18.09
2023-03-03T22:31:50.139Z,18.01
2023-03-03T22:34:17.196Z,17.64
2023-03-03T22:36:44.054Z,17.35
2023-03-03T22:39:14.687Z,17.69
2023-03-03T22:41:42.113Z,17.93
2023-03-03T22:44:09.515Z,17.58
2023-03-03T22:46:36.640Z,17.23
2023-03-03T22:49:03.707Z,17.36
2023-03-03T22:51:30.521Z,17.62
2023-03-03T22:53:57.184Z,17.64
2023-03-03T22:56:23.829Z,17.34
2023-03-03T22:58:50.430Z,17.40
2023-03-03T23:01:19.854Z,17.36
2023-03-03T23:03:46.593Z,17.32
2023-03-03T23:06:13.635Z,17.24
2023-03-03T23:08:40.389Z,17.06
2023-03-03T23:11:08.602Z,16.85
2023-03-03T23:13:35.362Z,17.17
2023-03-03T23:16:02.383Z,17.57
2023-03-03T23:18:29.347Z,17.67
2023-03-03T23:20:56.644Z,16.93
2023-03-03T23:23:23.799Z,17.50
2023-03-03T23:25:52.030Z,17.60
2023-03-03T23:28:19.515Z,17.47
2023-03-03T23:30:46.488Z,17.55
2023-03-03T23:33:14.055Z,17.57
2023-03-03T23:35:40.758Z,17.66
2023-03-03T23:38:14.638Z,17.65
2023-03-03T23:40:41.750Z,17.66
2023-03-03T23:43:08.341Z,17.40
2023-03-03T23:45:35.275Z,17.43
2023-03-03T23:48:02.046Z,17.30
2023-03-03T23:50:28.901Z,17.22
2023-03-03T23:52:56.181Z,17.54
2023-03-03T23:55:22.739Z,17.78
2023-03-03T23:57:49.719Z,17.90
